Time;durP1;ratioP1;P1;durP2;ratioP2;P2;SDS_P1;SDS_P2;PMS_P1;PMS_P2;Temp;Humidity;BMP_temperature;BMP_pressure;BME280_temperature;BME280_humidity;BME280_pressure;Samples;Min_cycle;Max_cycle;Signal;HPM_P1;HPM_P2
2022/06/14 00:02:31;;;;;;;6.57;3.33;;;;;;;18.68;48.57;99527.94;5086216;28;20047;-67
2022/06/14 00:04:58;;;;;;;4.22;2.90;;;;;;;18.69;48.20;99537.69;5085884;28;20064;-68
2022/06/14 00:07:26;;;;;;;3.55;2.25;;;;;;;18.70;48.59;99538.53;5086153;28;20059;-68
2022/06/14 00:09:53;;;;;;;4.18;3.00;;;;;;;18.70;48.33;99544.75;5086208;28;20048;-68
2022/06/14 00:12:20;;;;;;;3.45;2.13;;;;;;;18.71;48.22;99546.47;5086172;28;20067;-68
2022/06/14 00:14:47;;;;;;;4.47;2.53;;;;;;;18.70;48.24;99546.59;5085623;28;20407;-68
2022/06/14 00:17:15;;;;;;;4.20;2.53;;;;;;;18.69;48.09;99548.41;5086099;28;20067;-67
2022/06/14 00:19:43;;;;;;;3.50;2.38;;;;;;;18.74;48.21;99545.34;5085723;28;20319;-68
2022/06/14 00:22:11;;;;;;;12.15;2.50;;;;;;;18.74;48.07;99556.09;5086010;28;20056;-68
2022/06/14 00:24:39;;;;;;;3.72;2.42;;;;;;;18.65;48.25;99557.72;5085699;28;20056;-68
2022/06/14 00:27:07;;;;;;;4.18;2.50;;;;;;;18.63;47.84;99566.88;5085955;28;20057;-67
2022/06/14 00:29:34;;;;;;;4.60;2.97;;;;;;;18.59;48.31;99572.50;5085791;28;20220;-67
2022/06/14 00:32:01;;;;;;;7.22;2.63;;;;;;;18.50;48.29;99573.25;5085575;28;20056;-67
2022/06/14 00:34:28;;;;;;;3.78;2.70;;;;;;;18.48;47.99;99566.31;5085878;28;20067;-68
2022/06/14 00:36:57;;;;;;;4.88;2.78;;;;;;;18.54;48.23;99563.16;5085540;28;20056;-68
2022/06/14 00:39:25;;;;;;;3.83;2.38;;;;;;;17.95;47.59;99473.28;5085813;28;20335;-68
2022/06/14 00:41:55;;;;;;;4.25;2.65;;;;;;;18.47;47.71;99559.25;5085634;28;20060;-68
2022/06/14 00:44:24;;;;;;;4.72;2.55;;;;;;;18.52;47.75;99554.38;5085460;28;20056;-68
2022/06/14 00:46:57;;;;;;;4.40;2.38;;;;;;;18.52;47.79;99560.59;5085666;28;20307;-67
2022/06/14 00:49:29;;;;;;;4.18;3.00;;;;;;;18.53;47.42;99556.09;5085354;28;20063;-68
2022/06/14 00:52:03;;;;;;;4.00;2.60;;;;;;;18.47;47.25;99557.41;5085651;28;20056;-68
2022/06/14 00:54:35;;;;;;;5.88;2.92;;;;;;;18.42;47.71;99561.47;5085675;28;20059;-68
2022/06/14 00:57:07;;;;;;;4.68;2.90;;;;;;;18.44;47.51;99552.31;5085322;28;20067;-68
2022/06/14 00:59:40;;;;;;;4.68;2.42;;;;;;;18.40;47.17;99553.53;5085639;28;20052;-68
2022/06/14 01:02:14;;;;;;;4.13;2.50;;;;;;;18.37;47.27;99555.63;5085605;28;20048;-68
2022/06/14 01:04:42;;;;;;;3.42;2.63;;;;;;;18.39;48.04;99559.03;5085214;28;20327;-68
2022/06/14 01:07:16;;;;;;;4.40;2.97;;;;;;;18.44;47.98;99554.13;5085168;28;20063;-67
2022/06/14 01:09:48;;;;;;;6.18;2.47;;;;;;;18.42;47.42;99554.28;5085125;28;20056;-68
2022/06/14 01:12:18;;;;;;;4.78;3.00;;;;;;;18.40;47.73;99550.00;5085494;28;20048;-68
2022/06/14 01:14:53;;;;;;;3.20;2.42;;;;;;;18.41;46.68;99552.56;5085447;28;20103;-68
2022/06/14 01:17:21;;;;;;;3.72;2.65;;;;;;;18.30;47.58;99560.66;5085427;28;20048;-68
2022/06/14 01:19:48;;;;;;;4.07;2.70;;;;;;;18.28;47.55;99555.44;5085457;28;20060;-67
2022/06/14 01:22:27;;;;;;;4.00;2.47;;;;;;;18.15;47.74;99561.94;5085469;28;20052;-68
2022/06/14 01:24:55;;;;;;;4.28;2.47;;;;;;;18.15;48.18;99552.06;5085066;28;20193;-67
2022/06/14 01:27:25;;;;;;;3.28;2.35;;;;;;;18.07;47.97;99559.91;5087953;28;20056;-67
2022/06/14 01:30:03;;;;;;;6.35;2.40;;;;;;;18.03;48.01;99549.56;5089273;28;20059;-67
2022/06/14 01:32:34;;;;;;;4.35;2.55;;;;;;;17.97;47.98;99553.59;5088964;28;20208;-67
2022/06/14 01:35:05;;;;;;;3.58;2.30;;;;;;;17.67;48.25;99495.31;5089197;28;20068;-67
2022/06/14 01:37:34;;;;;;;4.03;2.72;;;;;;;17.93;48.11;99554.84;5089057;28;20308;-67
2022/06/14 01:40:04;;;;;;;5.25;2.47;;;;;;;17.92;48.51;99571.91;5088848;28;20312;-67
2022/06/14 01:42:40;;;;;;;5.00;2.35;;;;;;;17.99;48.61;99554.31;5088874;28;20052;-67
2022/06/14 01:45:15;;;;;;;3.20;2.33;;;;;;;17.99;48.44;99557.00;5089114;28;20063;-67
2022/06/14 01:47:49;;;;;;;4.13;2.60;;;;;;;18.02;48.31;99551.38;5088686;28;20056;-67
2022/06/14 01:53:23;;;;;;;5.47;2.80;;;;;;;18.01;48.00;99559.56;5089063;28;20047;-67
2022/06/14 01:55:58;;;;;;;6.82;2.60;;;;;;;18.05;47.91;99561.88;5088778;28;20174;-67
2022/06/14 01:58:33;;;;;;;4.47;2.78;;;;;;;18.08;48.26;99563.44;5088765;28;20056;-67
2022/06/14 02:01:11;;;;;;;4.07;2.35;;;;;;;18.13;47.74;99559.41;5088433;28;20056;-67
2022/06/14 02:06:39;;;;;;;3.05;2.15;;;;;;;18.08;47.85;99566.97;5088535;28;20041;-67
2022/06/14 02:09:14;;;;;;;4.72;2.03;;;;;;;18.08;47.85;99568.81;5088526;28;20216;-67
2022/06/14 02:11:42;;;;;;;3.90;2.15;;;;;;;18.04;48.10;99570.88;5088530;28;20059;-67
2022/06/14 02:14:19;;;;;;;4.43;2.53;;;;;;;18.09;48.00;99565.13;5088468;28;20056;-67
2022/06/14 02:16:55;;;;;;;3.28;2.35;;;;;;;18.07;47.54;99565.28;5088169;28;20056;-67
2022/06/14 02:19:32;;;;;;;4.05;2.63;;;;;;;18.01;47.92;99570.28;5088431;28;20053;-67
2022/06/14 02:22:07;;;;;;;5.90;2.08;;;;;;;17.97;48.01;99569.69;5088073;28;20056;-67
2022/06/14 02:24:41;;;;;;;3.58;2.30;;;;;;;17.95;47.84;99574.31;5088345;28;20063;-67
2022/06/14 02:27:14;;;;;;;4.20;2.22;;;;;;;17.82;47.70;99546.81;5088010;28;20217;-67
2022/06/14 02:29:45;;;;;;;5.28;2.42;;;;;;;17.94;47.54;99565.44;5088153;28;20064;-67
2022/06/14 02:32:20;;;;;;;3.75;2.33;;;;;;;17.98;47.58;99562.50;5088109;28;20056;-66
2022/06/14 02:34:53;;;;;;;3.67;2.30;;;;;;;17.98;47.87;99575.91;5088146;28;20056;-67
2022/06/14 02:37:26;;;;;;;4.05;2.33;;;;;;;17.93;47.82;99578.97;5087440;28;20055;-67
2022/06/14 02:39:58;;;;;;;4.38;2.30;;;;;;;17.89;47.87;99581.03;5088057;28;20335;-67
2022/06/14 02:42:29;;;;;;;5.28;2.80;;;;;;;17.84;47.95;99574.34;5087978;28;20056;-67
2022/06/14 02:45:03;;;;;;;4.65;2.25;;;;;;;17.77;48.13;99579.38;5087961;28;20063;-67
2022/06/14 02:47:38;;;;;;;3.75;2.15;;;;;;;17.78;48.31;99582.91;5087919;28;20056;-67
2022/06/14 02:50:12;;;;;;;7.35;2.35;;;;;;;17.73;48.14;99591.31;5087517;28;20312;-67
2022/06/14 02:52:44;;;;;;;4.55;2.38;;;;;;;17.63;48.42;99591.19;5087822;28;20308;-67
2022/06/14 02:55:17;;;;;;;5.00;2.20;;;;;;;17.73;48.42;99595.81;5087756;28;20044;-67
2022/06/14 02:57:50;;;;;;;4.95;2.20;;;;;;;17.70;48.61;99602.28;5087663;28;20048;-67
2022/06/14 03:00:21;;;;;;;5.43;2.53;;;;;;;17.71;48.43;99605.81;5087765;28;20059;-67
2022/06/14 03:02:54;;;;;;;3.53;2.33;;;;;;;17.68;48.05;99603.38;5087389;28;20063;-67
2022/06/14 03:05:30;;;;;;;4.35;2.50;;;;;;;17.67;48.10;99605.19;5087220;28;20052;-67
2022/06/14 03:08:03;;;;;;;3.58;1.95;;;;;;;17.57;48.28;99609.56;5087182;28;20052;-66
2022/06/14 03:10:43;;;;;;;3.50;2.85;;;;;;;17.58;48.52;99605.91;5087057;28;20056;-67
2022/06/14 03:13:18;;;;;;;5.63;2.70;;;;;;;17.61;48.63;99611.06;5087127;28;20056;-67
2022/06/14 03:15:51;;;;;;;4.50;2.40;;;;;;;17.65;48.26;99615.19;5087078;28;20056;-67
2022/06/14 03:18:28;;;;;;;3.58;2.45;;;;;;;17.63;48.68;99614.47;5087279;28;20057;-67
2022/06/14 03:21:00;;;;;;;6.18;2.42;;;;;;;17.65;48.40;99611.66;5087209;28;20052;-67
2022/06/14 03:23:37;;;;;;;5.82;2.90;;;;;;;17.67;48.14;99620.44;5086904;28;20052;-67
2022/06/14 03:26:13;;;;;;;9.38;3.38;;;;;;;17.60;48.34;99617.34;5087125;28;20057;-67
2022/06/14 03:28:46;;;;;;;4.22;2.95;;;;;;;17.53;48.46;99622.34;5087014;28;20056;-67
2022/06/14 03:31:21;;;;;;;5.28;2.97;;;;;;;17.60;48.10;99620.03;5086666;28;20056;-67
2022/06/14 03:33:54;;;;;;;5.53;2.95;;;;;;;17.55;48.71;99620.41;5086994;28;20208;-67
2022/06/14 03:36:21;;;;;;;5.95;3.28;;;;;;;17.59;48.50;99621.88;5086891;28;20056;-67
2022/06/14 03:38:52;;;;;;;6.88;3.17;;;;;;;17.58;48.32;99628.19;5086776;28;20064;-67
2022/06/14 03:41:24;;;;;;;5.63;3.05;;;;;;;16.85;48.49;99500.09;5086807;28;20045;-67
2022/06/14 03:43:54;;;;;;;5.65;2.83;;;;;;;17.59;48.54;99627.22;5086289;28;20123;-67
2022/06/14 03:46:30;;;;;;;5.57;2.95;;;;;;;17.50;47.91;99621.75;5086648;28;20056;-67
2022/06/14 03:49:04;;;;;;;4.78;3.00;;;;;;;17.55;48.03;99631.13;5085566;28;20328;-67
2022/06/14 03:51:45;;;;;;;5.38;2.80;;;;;;;17.49;48.37;99636.97;5086612;28;20067;-67
2022/06/14 03:54:31;;;;;;;6.13;2.95;;;;;;;17.47;48.67;99640.75;5086521;28;20063;-67
2022/06/14 03:57:15;;;;;;;5.05;3.13;;;;;;;17.51;48.26;99643.06;5086165;28;20056;-67
2022/06/14 04:00:03;;;;;;;6.18;3.00;;;;;;;17.49;48.46;99641.47;5086501;28;20052;-67
2022/06/14 04:02:54;;;;;;;4.68;2.97;;;;;;;17.44;48.90;99639.16;5086429;28;20063;-67
2022/06/14 04:05:36;;;;;;;4.47;3.13;;;;;;;17.43;48.54;99645.50;5085770;28;20052;-67
2022/06/14 04:08:17;;;;;;;6.78;3.30;;;;;;;17.44;48.43;99649.88;5086339;28;20063;-67
2022/06/14 04:10:50;;;;;;;4.85;3.10;;;;;;;17.35;48.69;99653.28;5085831;28;20056;-67
2022/06/14 04:13:28;;;;;;;6.25;2.92;;;;;;;17.28;48.79;99658.28;5086168;28;20056;-67
2022/06/14 04:16:00;;;;;;;5.40;3.00;;;;;;;17.39;48.44;99705.66;5085865;28;20067;-67
2022/06/14 04:18:39;;;;;;;6.82;3.67;;;;;;;17.37;48.51;99653.16;5086045;28;20056;-67
2022/06/14 04:21:15;;;;;;;5.90;2.72;;;;;;;17.42;48.39;99653.66;5085943;28;20044;-67
2022/06/14 04:23:52;;;;;;;5.43;2.70;;;;;;;17.43;48.65;99650.84;5085985;28;20052;-67
2022/06/14 04:26:26;;;;;;;4.57;2.58;;;;;;;17.33;48.78;99662.41;5086010;28;20063;-67
2022/06/14 04:29:01;;;;;;;5.82;3.13;;;;;;;17.31;48.05;99651.81;5086250;28;20067;-67
2022/06/14 04:31:32;;;;;;;3.75;2.60;;;;;;;17.30;47.81;99658.16;5085470;28;20056;-67
2022/06/14 04:34:10;;;;;;;6.55;3.13;;;;;;;17.23;48.70;99664.97;5085799;28;20056;-67
2022/06/14 04:36:44;;;;;;;3.95;2.45;;;;;;;17.31;48.39;99663.38;5085816;28;20056;-67
2022/06/14 04:39:17;;;;;;;5.53;3.33;;;;;;;17.27;48.62;99678.00;5085763;28;20061;-67
2022/06/14 04:41:50;;;;;;;5.53;3.58;;;;;;;17.25;48.66;99671.03;5085656;28;20346;-66
2022/06/14 04:44:25;;;;;;;5.13;2.97;;;;;;;17.21;48.98;99677.63;5085455;28;20056;-67
2022/06/14 04:46:58;;;;;;;3.80;2.60;;;;;;;17.33;48.77;99668.63;5085729;28;20060;-66
2022/06/14 04:49:31;;;;;;;7.85;3.22;;;;;;;17.24;48.53;99651.44;5085640;28;20067;-67
2022/06/14 04:52:05;;;;;;;6.93;3.45;;;;;;;17.43;48.26;99663.41;5085467;28;20053;-67
2022/06/14 04:54:40;;;;;;;6.25;3.60;;;;;;;17.28;48.23;99676.16;5085326;28;20216;-68
2022/06/14 04:57:12;;;;;;;5.13;3.20;;;;;;;17.30;48.37;99683.09;5085597;28;20053;-68
2022/06/14 04:59:46;;;;;;;6.07;3.63;;;;;;;17.37;48.24;99678.13;5085533;28;20343;-68
2022/06/14 05:02:17;;;;;;;8.32;3.47;;;;;;;17.41;48.41;99684.09;5085541;28;20059;-68
2022/06/14 05:04:49;;;;;;;6.13;3.50;;;;;;;17.45;48.51;99685.56;5085214;28;20064;-68
2022/06/14 05:07:21;;;;;;;4.95;3.63;;;;;;;17.41;48.49;99689.47;5085392;28;20044;-68
2022/06/14 05:09:54;;;;;;;5.97;3.38;;;;;;;17.42;48.81;99685.81;5085386;28;20052;-68
2022/06/14 05:12:25;;;;;;;5.40;2.90;;;;;;;17.44;47.82;99681.19;5085043;28;20067;-68
2022/06/14 05:14:59;;;;;;;7.35;3.50;;;;;;;17.43;48.13;99692.88;5085392;28;20052;-68
2022/06/14 05:17:32;;;;;;;5.25;3.35;;;;;;;17.47;48.53;99679.13;5085425;28;20052;-68
2022/06/14 05:20:04;;;;;;;4.43;3.10;;;;;;;17.53;48.42;99681.31;5085398;28;20194;-68
2022/06/14 05:22:35;;;;;;;6.18;3.30;;;;;;;17.55;47.65;99676.69;5085280;28;20063;-68
2022/06/14 05:25:05;;;;;;;4.88;2.85;;;;;;;17.60;47.91;99677.16;5085222;28;20063;-68
2022/06/14 05:27:49;;;;;;;4.15;2.85;;;;;;;17.60;47.43;99665.59;5085138;28;20075;-68
2022/06/14 05:30:32;;;;;;;4.72;3.00;;;;;;;17.55;48.02;99679.38;5085178;28;20309;-68
2022/06/14 05:33:09;;;;;;;6.95;3.60;;;;;;;17.39;48.29;99688.72;5084951;28;20079;-68
2022/06/14 05:35:40;;;;;;;4.28;2.90;;;;;;;16.89;48.10;99581.84;5085100;28;20048;-68
2022/06/14 05:38:19;;;;;;;6.35;3.75;;;;;;;17.55;48.10;99676.69;5084929;28;20068;-68
2022/06/14 05:40:54;;;;;;;4.68;2.95;;;;;;;17.58;48.42;99679.13;5085115;28;20077;-68
2022/06/14 05:43:30;;;;;;;4.30;2.53;;;;;;;17.67;47.94;99679.41;5084715;28;20075;-68
2022/06/14 05:46:05;;;;;;;4.15;2.90;;;;;;;17.56;47.14;99681.06;5085030;28;20056;-68
2022/06/14 05:48:35;;;;;;;5.05;3.13;;;;;;;17.69;48.01;99682.81;5084609;28;20056;-68
2022/06/14 05:51:06;;;;;;;7.82;3.33;;;;;;;17.74;47.68;99691.34;5084478;28;20049;-68
2022/06/14 05:53:38;;;;;;;5.32;3.00;;;;;;;17.80;47.91;99683.66;5084705;28;20312;-68
2022/06/14 05:56:13;;;;;;;4.90;3.38;;;;;;;17.80;47.26;99686.34;5084913;28;20067;-68
2022/06/14 05:58:46;;;;;;;5.90;3.97;;;;;;;17.86;47.04;99687.69;5084628;28;20189;-68
2022/06/14 06:01:19;;;;;;;9.25;5.50;;;;;;;15.83;47.47;99347.56;5084651;28;20044;-68
2022/06/14 06:03:52;;;;;;;7.67;4.80;;;;;;;17.84;47.80;99687.81;5084880;28;20060;-68
2022/06/14 06:06:24;;;;;;;6.32;3.58;;;;;;;17.90;47.78;99686.47;5084372;28;20056;-68
2022/06/14 06:08:56;;;;;;;7.40;3.83;;;;;;;17.98;47.33;99700.09;5084715;28;20056;-68
2022/06/14 06:11:28;;;;;;;6.18;3.75;;;;;;;17.97;46.95;99697.53;5084646;28;20067;-68
2022/06/14 06:14:01;;;;;;;5.60;3.53;;;;;;;18.00;46.71;99695.47;5087966;28;20056;-68
2022/06/14 06:16:35;;;;;;;6.20;3.63;;;;;;;18.02;46.78;99695.34;5088437;28;20050;-68
2022/06/14 06:19:09;;;;;;;4.60;2.90;;;;;;;18.04;46.34;99693.41;5088280;28;20049;-68
2022/06/14 06:21:44;;;;;;;12.52;3.80;;;;;;;18.03;46.60;99700.59;5088136;28;20056;-68
2022/06/14 06:24:18;;;;;;;4.90;3.00;;;;;;;15.91;46.77;99342.50;5087883;28;20204;-68
2022/06/14 06:26:56;;;;;;;6.32;3.45;;;;;;;18.06;46.58;99694.13;5088250;28;20063;-68
2022/06/14 06:29:28;;;;;;;5.18;2.95;;;;;;;17.95;46.32;99676.22;5088203;28;20064;-68
2022/06/14 06:31:57;;;;;;;6.63;3.33;;;;;;;18.14;46.62;99705.09;5088068;28;20052;-67
2022/06/14 06:34:24;;;;;;;7.18;4.53;;;;;;;18.21;46.55;99700.94;5087823;28;20324;-68
2022/06/14 06:37:01;;;;;;;6.50;4.68;;;;;;;18.25;45.82;99703.25;5088111;28;20056;-68
2022/06/14 06:39:35;;;;;;;5.97;3.72;;;;;;;18.31;46.42;99707.25;5087928;28;20060;-68
2022/06/14 06:42:09;;;;;;;5.38;3.45;;;;;;;18.33;46.16;99707.13;5088012;28;20060;-68
2022/06/14 06:44:43;;;;;;;5.53;3.63;;;;;;;18.34;46.25;99711.50;5087885;28;20063;-68
2022/06/14 06:47:16;;;;;;;4.75;3.13;;;;;;;18.40;46.46;99708.34;5087727;28;20049;-69
2022/06/14 06:49:57;;;;;;;8.40;4.25;;;;;;;18.45;45.71;99708.81;5087699;28;20056;-68
2022/06/14 06:52:31;;;;;;;7.68;3.13;;;;;;;18.41;45.60;99713.56;5087479;28;20204;-68
2022/06/14 06:55:03;;;;;;;4.80;2.83;;;;;;;18.48;46.05;99713.91;5087722;28;20056;-68
2022/06/14 06:57:35;;;;;;;6.35;2.92;;;;;;;18.59;46.05;99714.78;5087724;28;20056;-67
2022/06/14 07:00:05;;;;;;;3.75;2.80;;;;;;;18.66;45.98;99717.81;5087626;28;20064;-68
2022/06/14 07:02:41;;;;;;;4.82;3.30;;;;;;;18.74;45.49;99709.13;5086925;28;20045;-68
2022/06/14 07:05:14;;;;;;;5.30;2.92;;;;;;;18.85;45.73;99715.28;5087036;28;20339;-68
2022/06/14 07:07:49;;;;;;;6.53;3.22;;;;;;;18.91;44.39;99709.41;5087463;28;20064;-68
2022/06/14 07:10:28;;;;;;;5.05;3.60;;;;;;;19.10;45.04;99715.91;5086973;28;20304;-68
2022/06/14 07:12:59;;;;;;;6.90;4.32;;;;;;;18.99;44.06;99699.84;5087031;28;20059;-68
2022/06/14 07:15:33;;;;;;;7.97;4.10;;;;;;;19.18;44.49;99714.28;5087279;28;20059;-68
2022/06/14 07:18:17;;;;;;;5.82;2.88;;;;;;;19.13;44.20;99716.50;5087296;28;20059;-68
2022/06/14 07:20:57;;;;;;;5.70;4.10;;;;;;;19.29;43.99;99715.19;5086981;28;20063;-69
2022/06/14 07:23:36;;;;;;;9.55;3.30;;;;;;;19.37;43.62;99716.25;5086667;28;20059;-68
2022/06/14 07:26:12;;;;;;;5.78;3.55;;;;;;;19.52;43.63;99711.41;5087091;28;20219;-69
2022/06/14 07:28:49;;;;;;;3.60;2.75;;;;;;;19.67;43.51;99706.53;5086657;28;20243;-69
2022/06/14 07:31:23;;;;;;;4.93;2.40;;;;;;;19.76;43.29;99703.91;5086551;28;20075;-69
2022/06/14 07:33:53;;;;;;;6.40;2.85;;;;;;;19.96;43.83;99702.19;5086592;28;20224;-70
2022/06/14 07:36:30;;;;;;;4.70;2.78;;;;;;;20.22;43.53;99699.88;5086622;28;20328;-68
2022/06/14 07:39:04;;;;;;;6.60;3.72;;;;;;;20.37;42.84;99705.72;5086583;28;20056;-71
2022/06/14 07:41:43;;;;;;;5.15;3.20;;;;;;;20.22;41.50;99704.38;5087068;28;20060;-68
2022/06/14 07:44:21;;;;;;;5.95;2.90;;;;;;;20.18;42.21;99695.72;5086301;28;20056;-69
2022/06/14 07:46:57;;;;;;;6.68;3.10;;;;;;;20.38;42.11;99693.97;5086329;28;20068;-69
2022/06/14 07:49:33;;;;;;;6.57;2.90;;;;;;;20.63;41.61;99698.81;5086615;28;20056;-69
2022/06/14 07:52:06;;;;;;;5.25;3.33;;;;;;;20.86;41.47;99695.84;5086492;28;20347;-69
2022/06/14 07:54:38;;;;;;;5.55;3.60;;;;;;;21.04;41.16;99702.25;5086379;28;20048;-69
2022/06/14 07:57:10;;;;;;;6.50;3.20;;;;;;;21.14;40.14;99690.47;5086187;28;20063;-69
2022/06/14 07:59:44;;;;;;;6.28;3.35;;;;;;;21.29;40.09;99692.72;5086179;28;20056;-69
2022/06/14 08:02:20;;;;;;;5.57;3.60;;;;;;;21.45;40.48;99693.84;5086469;28;20060;-69
2022/06/14 08:04:54;;;;;;;4.95;2.85;;;;;;;21.38;40.17;99681.94;5085920;28;20190;-69
2022/06/14 08:07:23;;;;;;;5.50;2.70;;;;;;;21.13;39.41;99652.91;5085904;28;20059;-69
2022/06/14 08:09:56;;;;;;;6.45;3.20;;;;;;;21.71;39.87;99685.94;5086085;28;20052;-69
2022/06/14 08:12:32;;;;;;;5.70;3.38;;;;;;;21.94;39.39;99680.19;5086207;28;20200;-69
2022/06/14 08:15:04;;;;;;;5.45;3.17;;;;;;;22.08;39.52;99682.41;5085763;28;20048;-69
2022/06/14 08:17:38;;;;;;;4.38;2.97;;;;;;;22.17;38.64;99677.94;5086063;28;20064;-69
2022/06/14 08:20:19;;;;;;;6.18;2.80;;;;;;;22.24;38.74;99681.75;5086051;28;20067;-69
2022/06/14 08:22:52;;;;;;;7.05;3.83;;;;;;;22.53;39.14;99685.16;5085549;28;20053;-69
2022/06/14 08:25:23;;;;;;;4.32;3.05;;;;;;;22.67;38.96;99690.06;5085962;28;20064;-69
2022/06/14 08:27:56;;;;;;;4.85;3.15;;;;;;;22.90;38.48;99685.03;5085937;28;20063;-70
2022/06/14 08:30:29;;;;;;;5.75;3.60;;;;;;;22.78;38.70;99682.72;5085902;28;20064;-69
2022/06/14 08:33:01;;;;;;;7.15;4.13;;;;;;;22.67;38.73;99690.06;5085711;28;20045;-69
2022/06/14 08:35:35;;;;;;;6.47;2.92;;;;;;;22.47;38.90;99693.84;5085428;28;20052;-69
2022/06/14 08:38:05;;;;;;;;;;;;;;;22.51;38.48;99681.75;5086289;28;20304;-69
2022/06/14 08:40:54;;;;;;;5.13;3.30;;;;;;;22.78;38.00;99672.75;5085649;28;20167;-69
2022/06/14 08:43:27;;;;;;;5.55;2.85;;;;;;;23.04;38.01;99679.06;5085644;28;20312;-69
2022/06/14 08:46:17;;;;;;;5.38;2.83;;;;;;;23.10;36.57;99674.03;5085421;28;20056;-69
2022/06/14 08:49:02;;;;;;;5.20;2.92;;;;;;;23.18;36.95;99669.53;5085512;28;20049;-69
2022/06/14 08:51:34;;;;;;;4.68;2.83;;;;;;;22.95;37.22;99579.16;5085601;28;20063;-70
2022/06/14 08:54:34;;;;;;;5.53;3.30;;;;;;;23.64;35.94;99659.41;5085400;28;20343;-70
2022/06/14 08:57:23;;;;;;;6.00;3.63;;;;;;;23.63;36.05;99663.09;5068936;28;20048;-69
2022/06/14 09:00:25;;;;;;;6.35;3.70;;;;;;;23.74;35.97;99656.56;5085326;28;20209;-69
2022/06/14 09:03:42;;;;;;;7.25;3.22;;;;;;;23.94;35.84;99652.59;5085348;28;20052;-69
2022/06/14 09:06:38;;;;;;;6.25;3.50;;;;;;;23.99;35.51;99656.56;5084575;28;20056;-69
2022/06/14 09:09:36;;;;;;;7.20;3.53;;;;;;;23.98;35.32;99648.59;5085333;28;20067;-70
2022/06/14 09:12:32;;;;;;;7.70;5.05;;;;;;;24.11;36.02;99654.41;5085139;28;20048;-70
2022/06/14 09:15:40;;;;;;;6.70;3.58;;;;;;;24.38;35.93;99650.59;5084642;28;20067;-70
2022/06/14 09:18:18;;;;;;;6.30;2.50;;;;;;;24.50;35.35;99654.66;5078809;28;20327;-70
2022/06/14 09:21:05;;;;;;;4.82;3.05;;;;;;;24.60;34.79;99654.50;5085223;28;20347;-69
2022/06/14 09:23:45;;;;;;;4.43;2.80;;;;;;;24.57;34.44;99650.28;5084906;28;20324;-70
2022/06/14 09:26:39;;;;;;;5.68;2.70;;;;;;;24.53;34.69;99650.78;5085023;28;20052;-68
2022/06/14 09:29:40;;;;;;;5.15;2.28;;;;;;;24.55;35.31;99640.63;5085149;28;20220;-68
2022/06/14 09:35:48;;;;;;;8.05;3.45;;;;;;;24.84;34.86;99626.63;5075029;28;20063;-69
2022/06/14 09:38:42;;;;;;;7.55;4.05;;;;;;;25.14;34.67;99631.38;5085143;28;20048;-69
2022/06/14 09:41:27;;;;;;;4.53;3.20;;;;;;;24.79;33.79;99621.69;5084221;28;20056;-69
2022/06/14 09:44:10;;;;;;;5.47;3.10;;;;;;;24.59;34.95;99596.75;5084455;28;20044;-69
2022/06/14 09:47:12;;;;;;;3.60;2.70;;;;;;;24.58;34.42;99633.00;5084978;28;20067;-69
2022/06/14 09:50:12;;;;;;;3.42;2.42;;;;;;;24.93;34.63;99628.31;5056894;28;20060;-69
2022/06/14 09:53:04;;;;;;;4.60;3.17;;;;;;;25.04;34.37;99611.72;5088303;28;20053;-69
2022/06/14 09:56:06;;;;;;;5.57;3.88;;;;;;;24.71;34.33;99548.53;5088627;28;20063;-69
2022/06/14 09:59:18;;;;;;;4.38;2.65;;;;;;;25.09;34.55;99614.78;5088238;28;20315;-69
2022/06/14 10:01:54;;;;;;;7.18;3.90;;;;;;;24.55;33.66;99617.09;5053170;28;20214;-69
2022/06/14 10:04:53;;;;;;;4.63;2.40;;;;;;;24.20;34.74;99617.34;5088126;28;20056;-69
2022/06/14 10:07:42;;;;;;;6.07;3.25;;;;;;;23.93;34.61;99513.72;5084449;28;20052;-69
2022/06/14 10:10:33;;;;;;;3.45;2.40;;;;;;;24.70;33.29;99616.44;5088237;28;20048;-69
2022/06/14 10:13:39;;;;;;;6.38;4.05;;;;;;;24.47;34.25;99618.94;5088160;28;20338;-69
2022/06/14 10:16:19;;;;;;;5.88;3.97;;;;;;;24.64;34.64;99618.78;5084910;28;20057;-69
2022/06/14 10:19:07;;;;;;;8.13;4.72;;;;;;;24.79;35.00;99610.00;5087953;28;20056;-69
2022/06/14 10:21:41;;;;;;;6.13;3.28;;;;;;;24.84;34.07;99613.06;5088220;28;20127;-69
2022/06/14 10:24:20;;;;;;;8.52;3.88;;;;;;;24.75;34.64;99616.78;5088542;28;20063;-69
2022/06/14 10:30:05;;;;;;;6.35;3.13;;;;;;;24.50;35.29;99615.91;5088294;28;20071;-69
2022/06/14 10:33:01;;;;;;;5.25;3.75;;;;;;;24.49;33.61;99612.34;5087798;28;20059;-69
2022/06/14 10:35:34;;;;;;;5.22;2.90;;;;;;;24.52;33.45;99606.59;5087752;28;20131;-69
2022/06/14 10:38:43;;;;;;;4.65;2.65;;;;;;;24.50;33.60;99605.91;5088059;28;20052;-69
2022/06/14 10:41:24;;;;;;;6.00;3.65;;;;;;;24.29;33.43;99606.38;5072659;28;20059;-69
2022/06/14 10:43:57;;;;;;;4.35;2.85;;;;;;;24.36;34.48;99601.16;5087742;28;20326;-69
2022/06/14 10:46:29;;;;;;;6.30;3.63;;;;;;;24.45;35.12;99604.72;5087980;28;20063;-69
2022/06/14 10:49:22;;;;;;;6.15;3.40;;;;;;;24.59;33.49;99593.22;5087454;28;20048;-69
2022/06/14 10:52:11;;;;;;;4.32;2.78;;;;;;;24.64;33.68;99590.84;5087404;28;20056;-69
2022/06/14 10:54:54;;;;;;;5.85;2.90;;;;;;;24.45;33.75;99580.34;5084975;28;20052;-69
2022/06/14 10:57:38;;;;;;;5.18;2.42;;;;;;;24.29;33.17;99594.69;5087716;28;20056;-68
2022/06/14 11:00:16;;;;;;;5.13;2.47;;;;;;;24.43;34.12;99591.34;5087213;28;20316;-69
2022/06/14 11:03:17;;;;;;;3.78;2.55;;;;;;;24.58;33.78;99589.66;5087596;28;20067;-69
2022/06/14 11:06:13;;;;;;;5.15;3.13;;;;;;;24.59;34.14;99585.06;5086968;28;20060;-69
2022/06/14 11:08:51;;;;;;;5.05;3.08;;;;;;;24.56;34.35;99582.72;5087460;28;20055;-69
2022/06/14 11:11:43;;;;;;;4.80;3.33;;;;;;;24.51;34.13;99595.91;5087368;28;20056;-69
2022/06/14 11:14:20;;;;;;;7.47;4.03;;;;;;;24.46;34.74;99587.44;5086757;28;20052;-69
2022/06/14 11:17:10;;;;;;;5.63;3.25;;;;;;;24.43;34.48;99590.47;5087285;28;20056;-69
2022/06/14 11:19:54;;;;;;;6.75;4.13;;;;;;;24.57;34.70;99584.41;5086918;28;20068;-69
2022/06/14 11:22:35;;;;;;;5.03;3.07;;;;;;;22.42;34.19;99202.88;5087181;28;20056;-68
2022/06/14 11:25:14;;;;;;;7.28;2.97;;;;;;;24.74;33.91;99572.59;5087044;28;20076;-69
2022/06/14 11:27:51;;;;;;;5.03;3.45;;;;;;;24.86;33.87;99578.50;5086779;28;20056;-69
2022/06/14 11:30:26;;;;;;;7.10;3.47;;;;;;;24.93;34.15;99572.22;5086953;28;20300;-69
2022/06/14 11:33:04;;;;;;;6.07;3.30;;;;;;;25.02;34.15;99561.41;5086507;28;20056;-69
2022/06/14 11:35:48;;;;;;;4.72;3.53;;;;;;;24.94;32.94;99571.22;5086524;28;20048;-69
2022/06/14 11:38:37;;;;;;;4.05;2.60;;;;;;;24.96;33.49;99573.75;5086922;28;20056;-69
2022/06/14 11:41:08;;;;;;;4.80;2.95;;;;;;;24.78;33.68;99576.66;5086831;28;20056;-69
2022/06/14 11:43:55;;;;;;;8.25;3.00;;;;;;;24.92;33.99;99573.25;5086751;28;20059;-69
2022/06/14 11:46:39;;;;;;;3.40;2.28;;;;;;;24.92;33.90;99572.41;5086269;28;20058;-69
2022/06/14 11:49:13;;;;;;;4.57;2.67;;;;;;;24.88;33.33;99571.03;5086584;28;20056;-69
2022/06/14 11:51:52;;;;;;;4.95;3.05;;;;;;;24.67;34.04;99570.72;5086129;28;20048;-69
2022/06/14 11:54:26;;;;;;;4.63;2.60;;;;;;;24.77;33.79;99563.25;5086312;28;20071;-69
2022/06/14 11:57:09;;;;;;;6.40;2.72;;;;;;;24.72;34.68;99539.38;5086508;28;20064;-69
2022/06/14 12:00:03;;;;;;;4.85;2.78;;;;;;;24.91;34.21;99560.72;5086431;28;20048;-69
2022/06/14 12:02:43;;;;;;;5.43;3.10;;;;;;;24.85;33.89;99560.53;5086258;28;20064;-69
2022/06/14 12:05:23;;;;;;;6.75;2.97;;;;;;;24.80;34.12;99552.09;5085927;28;20060;-69
2022/06/14 12:08:00;;;;;;;4.68;2.63;;;;;;;24.90;33.94;99547.31;5086215;28;20048;-69
2022/06/14 12:10:47;;;;;;;6.97;3.30;;;;;;;24.88;33.66;99527.69;5085648;28;20040;-69
2022/06/14 12:13:31;;;;;;;6.05;2.88;;;;;;;24.58;33.81;99534.63;5085939;28;20049;-69
2022/06/14 12:16:04;;;;;;;6.07;2.95;;;;;;;24.83;34.10;99543.59;5086085;28;20075;-68
2022/06/14 12:18:35;;;;;;;5.13;3.10;;;;;;;24.69;34.51;99547.00;5086087;28;20079;-69
2022/06/14 12:21:07;;;;;;;5.78;3.00;;;;;;;24.75;33.83;99547.16;5085796;28;20316;-69
2022/06/14 12:23:37;;;;;;;5.68;2.67;;;;;;;24.79;34.83;99539.53;5086081;28;20059;-69
2022/06/14 12:29:05;;;;;;;5.63;3.17;;;;;;;24.67;34.11;99546.34;5085711;28;20059;-69
2022/06/14 12:31:41;;;;;;;5.78;3.42;;;;;;;24.60;34.79;99540.72;5085689;28;20447;-69
2022/06/14 12:34:14;;;;;;;4.13;2.65;;;;;;;24.68;34.83;99537.19;5085500;28;20056;-69
2022/06/14 12:36:49;;;;;;;6.25;3.47;;;;;;;24.73;34.15;99538.38;5085552;28;20048;-69